createdAt,value
2023-02-11T00:00:21.348Z,-0.56
2023-02-11T00:02:48.240Z,-0.53
2023-02-11T00:05:15.409Z,-0.53
2023-02-11T00:07:42.098Z,-0.53
2023-02-11T00:10:09.124Z,-0.55
2023-02-11T00:12:36.967Z,-0.55
2023-02-11T00:15:04.524Z,-0.54
2023-02-11T00:17:32.845Z,-0.53
2023-02-11T00:19:59.364Z,-0.54
2023-02-11T00:22:25.968Z,-0.53
2023-02-11T00:24:52.543Z,-0.53
2023-02-11T00:27:19.167Z,-0.53
2023-02-11T00:29:45.819Z,-0.57
2023-02-11T00:32:12.356Z,-0.54
2023-02-11T00:34:38.889Z,-0.55
2023-02-11T00:37:05.777Z,-0.50
2023-02-11T00:39:32.382Z,-0.50
2023-02-11T00:41:58.958Z,-0.51
2023-02-11T00:44:25.507Z,-0.52
2023-02-11T00:46:52.046Z,-0.51
2023-02-11T00:49:18.640Z,-0.56
2023-02-11T00:51:45.334Z,-0.56
2023-02-11T00:54:12.029Z,-0.51
2023-02-11T00:56:38.541Z,-0.56
2023-02-11T00:59:05.113Z,-0.51
2023-02-11T01:01:31.704Z,-0.54
2023-02-11T01:03:58.308Z,-0.53
2023-02-11T01:06:25.167Z,-0.54
2023-02-11T01:08:51.714Z,-0.57
2023-02-11T01:11:20.857Z,-0.51
2023-02-11T01:13:48.992Z,-0.52
2023-02-11T01:16:15.904Z,-0.54
2023-02-11T01:18:44.306Z,-0.54
2023-02-11T01:21:11.120Z,-0.54
2023-02-11T01:23:37.678Z,-0.51
2023-02-11T01:26:04.404Z,-0.52
2023-02-11T01:28:31.196Z,-0.52
2023-02-11T01:30:58.211Z,-0.55
2023-02-11T01:33:24.926Z,-0.56
2023-02-11T01:35:52.136Z,-0.55
2023-02-11T01:38:21.728Z,-0.57
2023-02-11T01:40:52.343Z,-0.56
2023-02-11T01:43:19.735Z,-0.55
2023-02-11T01:45:46.994Z,-0.58
2023-02-11T01:48:18.450Z,-0.63
2023-02-11T01:50:47.323Z,-0.68
2023-02-11T01:53:33.512Z,-0.72
2023-02-11T01:56:19.286Z,-0.79
2023-02-11T01:58:49.121Z,-0.90
2023-02-11T02:01:22.221Z,-0.98
2023-02-11T02:03:54.314Z,-1.04
2023-02-11T02:06:47.618Z,-1.11
2023-02-11T02:09:23.689Z,-1.20
2023-02-11T02:11:50.990Z,-1.22
2023-02-11T02:14:17.919Z,-1.23
2023-02-11T02:16:44.968Z,-1.30
2023-02-11T02:19:48.810Z,-1.35
2023-02-11T02:22:18.286Z,-1.42
2023-02-11T02:25:09.680Z,-1.46
2023-02-11T02:28:13.672Z,-1.47
2023-02-11T02:31:11.718Z,-1.42
2023-02-11T02:33:58.300Z,-1.42
2023-02-11T02:36:39.480Z,-1.54
2023-02-11T02:39:22.381Z,-1.48
2023-02-11T02:41:51.626Z,-1.48
2023-02-11T02:44:19.683Z,-1.44
2023-02-11T02:46:46.300Z,-1.39
2023-02-11T02:49:14.932Z,-1.33
2023-02-11T02:51:56.654Z,-1.31
2023-02-11T02:54:56.647Z,-1.28
2023-02-11T02:57:41.967Z,-1.23
2023-02-11T03:00:08.492Z,-1.18
2023-02-11T03:03:08.592Z,-1.14
2023-02-11T03:05:44.026Z,-1.14
2023-02-11T03:08:18.575Z,-1.22
2023-02-11T03:10:51.350Z,-1.23
2023-02-11T03:13:22.270Z,-1.25
2023-02-11T03:15:52.691Z,-1.27
2023-02-11T03:18:25.350Z,-1.29
2023-02-11T03:20:54.236Z,-1.30
2023-02-11T03:23:29.435Z,-1.30
2023-02-11T03:25:59.754Z,-1.30
2023-02-11T03:28:46.344Z,-1.34
2023-02-11T03:31:27.716Z,-1.35
2023-02-11T03:34:08.669Z,-1.34
2023-02-11T03:36:54.607Z,-1.36
2023-02-11T03:39:29.537Z,-1.36
2023-02-11T03:41:59.312Z,-1.39
2023-02-11T03:44:31.342Z,-1.43
2023-02-11T03:46:59.030Z,-1.49
2023-02-11T03:49:27.802Z,-1.57
2023-02-11T03:51:55.838Z,-1.73
2023-02-11T03:54:30.325Z,-1.76
2023-02-11T03:57:00.122Z,-1.85
2023-02-11T03:59:27.078Z,-1.91
2023-02-11T04:01:53.751Z,-1.97
2023-02-11T04:04:20.572Z,-2.04
2023-02-11T04:06:47.119Z,-2.06
2023-02-11T04:09:15.015Z,-2.09
2023-02-11T04:11:41.690Z,-2.15
2023-02-11T04:14:08.219Z,-2.20
2023-02-11T04:16:34.896Z,-2.19
2023-02-11T04:19:01.746Z,-2.19
2023-02-11T04:21:28.320Z,-2.19
2023-02-11T04:23:54.929Z,-2.20
2023-02-11T04:26:21.522Z,-2.22
2023-02-11T04:28:48.043Z,-2.27
2023-02-11T04:31:14.603Z,-2.24
2023-02-11T04:33:41.235Z,-2.23
2023-02-11T04:36:08.102Z,-2.24
2023-02-11T04:38:34.652Z,-2.22
2023-02-11T04:41:01.326Z,-2.19
2023-02-11T04:43:27.944Z,-2.16
2023-02-11T04:45:58.342Z,-2.14
2023-02-11T04:48:25.760Z,-2.09
2023-02-11T04:50:52.355Z,-2.07
2023-02-11T04:53:18.973Z,-2.05
2023-02-11T04:55:48.542Z,-2.02
2023-02-11T04:58:15.201Z,-2.03
2023-02-11T05:00:41.834Z,-2.05
2023-02-11T05:03:08.408Z,-2.04
2023-02-11T05:05:37.789Z,-2.01
2023-02-11T05:08:04.517Z,-1.98
2023-02-11T05:10:31.222Z,-1.95
2023-02-11T05:12:57.749Z,-1.92
2023-02-11T05:15:24.289Z,-1.92
2023-02-11T05:17:50.834Z,-1.91
2023-02-11T05:20:17.517Z,-1.86
2023-02-11T05:22:44.073Z,-1.84
2023-02-11T05:25:10.675Z,-1.87
2023-02-11T05:27:37.252Z,-1.81
2023-02-11T05:30:05.554Z,-1.78
2023-02-11T05:32:32.355Z,-1.73
2023-02-11T05:34:58.875Z,-1.75
2023-02-11T05:37:25.423Z,-1.66
2023-02-11T05:39:52.042Z,-1.65
2023-02-11T05:42:18.571Z,-1.61
2023-02-11T05:44:45.148Z,-1.63
2023-02-11T05:47:11.755Z,-1.53
2023-02-11T05:49:38.285Z,-1.50
2023-02-11T05:52:05.031Z,-1.50
2023-02-11T05:54:31.587Z,-1.41
2023-02-11T05:56:58.121Z,-1.33
2023-02-11T05:59:24.705Z,-1.31
2023-02-11T06:01:51.265Z,-1.31
2023-02-11T06:04:17.807Z,-1.26
2023-02-11T06:06:44.350Z,-1.18
2023-02-11T06:09:11.813Z,-1.13
2023-02-11T06:11:38.751Z,-1.06
2023-02-11T06:14:05.363Z,-0.98
2023-02-11T06:16:32.049Z,-0.94
2023-02-11T06:18:58.641Z,-0.88
2023-02-11T06:21:33.518Z,-0.85
2023-02-11T06:24:07.051Z,-0.79
2023-02-11T06:26:33.652Z,-0.73
2023-02-11T06:29:00.758Z,-0.67
2023-02-11T06:31:27.907Z,-0.65
2023-02-11T06:33:58.462Z,-0.55
2023-02-11T06:36:25.164Z,-0.47
2023-02-11T06:38:51.798Z,-0.44
2023-02-11T06:41:20.335Z,-0.36
2023-02-11T06:43:47.713Z,-0.25
2023-02-11T06:46:14.328Z,-0.19
2023-02-11T06:48:43.695Z,-0.16
2023-02-11T06:51:16.074Z,-0.11
2023-02-11T06:53:45.565Z,-0.13
2023-02-11T06:56:16.196Z,-0.14
2023-02-11T06:58:42.791Z,-0.11
2023-02-11T07:01:12.348Z,-0.11
2023-02-11T07:03:43.040Z,-0.11
2023-02-11T07:06:14.073Z,-0.10
2023-02-11T07:08:42.453Z,-0.08
2023-02-11T07:11:11.262Z,-0.05
2023-02-11T07:13:37.889Z,0.00
2023-02-11T07:16:09.330Z,0.07
2023-02-11T07:18:36.333Z,0.06
2023-02-11T07:21:10.366Z,0.06
2023-02-11T07:23:37.161Z,0.05
2023-02-11T07:26:16.397Z,0.06
2023-02-11T07:28:44.851Z,0.09
2023-02-11T07:31:11.523Z,0.12
2023-02-11T07:33:38.216Z,0.14
2023-02-11T07:36:06.699Z,0.12
2023-02-11T07:38:34.666Z,0.18
2023-02-11T07:41:05.848Z,0.23
2023-02-11T07:43:32.873Z,0.22
2023-02-11T07:45:59.426Z,0.30
2023-02-11T07:48:25.961Z,0.31
2023-02-11T07:50:52.524Z,0.34
2023-02-11T07:53:19.103Z,0.42
2023-02-11T07:55:45.661Z,0.43
2023-02-11T07:58:12.252Z,0.45
2023-02-11T08:00:38.795Z,0.56
2023-02-11T08:03:05.456Z,0.65
2023-02-11T08:05:32.018Z,0.63
2023-02-11T08:07:58.561Z,0.66
2023-02-11T08:10:25.105Z,0.70
2023-02-11T08:12:51.672Z,0.73
2023-02-11T08:15:18.189Z,0.69
2023-02-11T08:17:44.718Z,0.72
2023-02-11T08:20:12.058Z,0.72
2023-02-11T08:22:38.591Z,0.73
2023-02-11T08:25:05.498Z,0.73
2023-02-11T08:27:32.051Z,0.71
2023-02-11T08:29:59.882Z,0.80
2023-02-11T08:32:26.768Z,0.81
2023-02-11T08:34:53.432Z,0.87
2023-02-11T08:37:20.614Z,0.90
2023-02-11T08:39:47.415Z,0.97
2023-02-11T08:42:15.631Z,0.97
2023-02-11T08:44:42.983Z,1.08
2023-02-11T08:47:09.743Z,1.16
2023-02-11T08:49:36.418Z,1.23
2023-02-11T08:52:04.232Z,1.27
2023-02-11T08:54:31.675Z,1.32
2023-02-11T08:56:58.236Z,1.37
2023-02-11T08:59:24.828Z,1.33
2023-02-11T09:01:51.578Z,1.30
2023-02-11T09:04:18.756Z,1.20
2023-02-11T09:06:45.494Z,1.17
2023-02-11T09:09:14.196Z,1.24
2023-02-11T09:11:42.700Z,1.25
2023-02-11T09:14:16.708Z,1.33
2023-02-11T09:16:43.457Z,1.48
2023-02-11T09:19:10.636Z,1.56
2023-02-11T09:21:37.639Z,1.52
2023-02-11T09:24:06.549Z,1.55
2023-02-11T09:26:35.748Z,1.61
2023-02-11T09:29:03.074Z,1.58
2023-02-11T09:31:31.532Z,1.57
2023-02-11T09:34:04.355Z,1.58
2023-02-11T09:36:33.791Z,1.58
2023-02-11T09:39:02.153Z,1.50
2023-02-11T09:41:48.919Z,1.51
2023-02-11T09:44:44.695Z,1.61
2023-02-11T09:47:34.037Z,1.68
2023-02-11T09:50:04.799Z,1.70
2023-02-11T09:52:51.668Z,1.74
2023-02-11T09:55:22.573Z,1.80
2023-02-11T09:57:49.577Z,1.81
2023-02-11T10:00:21.058Z,1.79
2023-02-11T10:03:35.388Z,1.81
2023-02-11T10:06:07.783Z,1.93
2023-02-11T10:08:41.310Z,1.96
2023-02-11T10:11:45.141Z,1.88
2023-02-11T10:14:36.449Z,1.88
2023-02-11T10:17:37.418Z,1.76
2023-02-11T10:20:25.547Z,1.73
2023-02-11T10:23:09.866Z,1.69
2023-02-11T10:25:45.460Z,1.77
2023-02-11T10:28:16.527Z,1.75
2023-02-11T10:31:02.879Z,1.88
2023-02-11T10:33:32.484Z,1.91
2023-02-11T10:35:59.738Z,1.90
2023-02-11T10:38:28.014Z,2.00
2023-02-11T10:40:54.593Z,1.96
2023-02-11T10:43:26.234Z,2.01
2023-02-11T10:45:54.724Z,2.08
2023-02-11T10:48:39.786Z,2.18
2023-02-11T10:51:22.821Z,2.24
2023-02-11T10:54:13.826Z,2.22
2023-02-11T10:56:47.139Z,2.12
2023-02-11T10:59:21.499Z,2.03
2023-02-11T11:01:59.415Z,1.94
2023-02-11T11:04:45.018Z,1.92
2023-02-11T11:07:29.461Z,1.98
2023-02-11T11:10:02.353Z,1.99
2023-02-11T11:12:31.671Z,2.02
2023-02-11T11:15:01.665Z,2.00
2023-02-11T11:17:29.311Z,2.01
2023-02-11T11:20:14.043Z,2.12
2023-02-11T11:22:42.246Z,2.07
2023-02-11T11:25:22.297Z,2.20
2023-02-11T11:27:51.232Z,2.27
2023-02-11T11:30:19.042Z,2.24
2023-02-11T11:32:46.437Z,2.37
2023-02-11T11:35:30.072Z,2.37
2023-02-11T11:38:05.201Z,2.45
2023-02-11T11:40:34.015Z,2.63
2023-02-11T11:43:05.631Z,2.88
2023-02-11T11:45:32.795Z,2.73
2023-02-11T11:48:28.040Z,2.66
2023-02-11T11:51:04.353Z,2.49
2023-02-11T11:54:08.828Z,2.35
2023-02-11T11:56:46.358Z,2.29
2023-02-11T11:59:16.473Z,2.18
2023-02-11T12:01:51.248Z,2.25
2023-02-11T12:04:36.267Z,2.32
2023-02-11T12:07:17.586Z,2.30
2023-02-11T12:09:55.943Z,2.33
2023-02-11T12:12:49.940Z,2.36
2023-02-11T12:15:48.229Z,2.41
2023-02-11T12:18:52.443Z,2.50
2023-02-11T12:21:56.275Z,2.77
2023-02-11T12:24:41.433Z,3.08
2023-02-11T12:27:17.085Z,3.42
2023-02-11T12:30:21.975Z,3.69
2023-02-11T12:32:59.347Z,3.64
2023-02-11T12:35:40.696Z,3.48
2023-02-11T12:38:10.232Z,3.44
2023-02-11T12:41:15.088Z,3.17
2023-02-11T12:43:44.602Z,3.00
2023-02-11T12:47:15.957Z,2.88
2023-02-11T12:49:50.606Z,2.84
2023-02-11T12:52:24.097Z,2.99
2023-02-11T12:55:14.303Z,3.24
2023-02-11T12:57:42.179Z,3.63
2023-02-11T13:00:15.447Z,4.14
2023-02-11T13:03:26.847Z,4.53
2023-02-11T13:05:58.711Z,4.57
2023-02-11T13:08:40.742Z,4.81
2023-02-11T13:11:14.253Z,6.75
2023-02-11T13:13:49.549Z,9.88
2023-02-11T13:16:33.595Z,11.43
2023-02-11T13:19:03.778Z,9.89
2023-02-11T13:22:01.693Z,8.22
2023-02-11T13:24:41.894Z,6.71
2023-02-11T13:27:11.690Z,6.20
2023-02-11T13:30:04.317Z,6.67
2023-02-11T13:33:03.273Z,6.35
2023-02-11T13:35:39.554Z,5.66
2023-02-11T13:38:17.410Z,4.91
2023-02-11T13:40:45.088Z,4.25
2023-02-11T13:43:23.707Z,3.86
2023-02-11T13:45:54.892Z,3.55
2023-02-11T13:48:27.721Z,3.44
2023-02-11T13:50:58.890Z,3.64
2023-02-11T13:53:27.672Z,3.79
2023-02-11T13:56:11.358Z,4.43
2023-02-11T13:58:47.545Z,4.23
2023-02-11T14:02:20.924Z,3.81
2023-02-11T14:05:38.879Z,3.40
2023-02-11T14:08:30.190Z,3.09
2023-02-11T14:10:58.184Z,2.92
2023-02-11T14:13:53.015Z,2.82
2023-02-11T14:16:36.775Z,2.65
2023-02-11T14:19:06.121Z,2.48
2023-02-11T14:21:39.619Z,2.30
2023-02-11T14:24:07.059Z,2.18
2023-02-11T14:26:42.551Z,2.09
2023-02-11T14:29:23.151Z,2.02
2023-02-11T14:31:58.836Z,1.93
2023-02-11T14:34:49.511Z,1.89
2023-02-11T14:37:37.252Z,1.80
2023-02-11T14:40:21.943Z,1.70
2023-02-11T14:42:48.632Z,1.64
2023-02-11T14:45:21.341Z,1.53
2023-02-11T14:48:03.424Z,1.53
2023-02-11T14:50:41.629Z,1.49
2023-02-11T14:53:15.995Z,1.44
2023-02-11T14:55:47.172Z,1.38
2023-02-11T14:58:15.527Z,1.31
2023-02-11T15:00:55.603Z,1.25
2023-02-11T15:03:26.151Z,1.15
2023-02-11T15:06:01.953Z,1.12
2023-02-11T15:08:30.763Z,1.12
2023-02-11T15:11:00.158Z,1.13
2023-02-11T15:13:31.181Z,1.08
2023-02-11T15:16:06.584Z,1.01
2023-02-11T15:18:47.063Z,1.02
2023-02-11T15:21:30.205Z,0.96
2023-02-11T15:24:24.662Z,0.94
2023-02-11T15:27:04.011Z,0.93
2023-02-11T15:29:42.873Z,0.92
2023-02-11T15:32:09.728Z,0.89
2023-02-11T15:34:37.396Z,0.87
2023-02-11T15:37:04.804Z,0.87
2023-02-11T15:39:38.826Z,0.89
2023-02-11T15:42:38.064Z,0.90
2023-02-11T15:45:35.725Z,0.93
2023-02-11T15:48:26.773Z,0.96
2023-02-11T15:51:01.073Z,0.97
2023-02-11T15:53:41.153Z,1.00
2023-02-11T15:56:25.420Z,1.00
2023-02-11T15:58:55.921Z,1.01
2023-02-11T16:01:34.386Z,0.95
2023-02-11T16:04:02.343Z,1.00
2023-02-11T16:06:40.630Z,1.01
2023-02-11T16:09:12.831Z,0.99
2023-02-11T16:11:48.672Z,1.00
2023-02-11T16:14:39.537Z,0.99
2023-02-11T16:17:11.096Z,0.97
2023-02-11T16:19:44.651Z,0.99
2023-02-11T16:22:25.996Z,0.93
2023-02-11T16:24:55.212Z,0.96
2023-02-11T16:27:24.877Z,1.00
2023-02-11T16:29:52.236Z,1.00
2023-02-11T16:32:23.547Z,1.00
2023-02-11T16:34:51.090Z,0.99
2023-02-11T16:37:17.817Z,0.97
2023-02-11T16:39:44.357Z,0.96
2023-02-11T16:42:14.010Z,0.98
2023-02-11T16:44:40.900Z,0.93
2023-02-11T16:47:16.478Z,0.95
2023-02-11T16:49:43.677Z,0.98
2023-02-11T16:52:15.511Z,0.97
2023-02-11T16:54:43.797Z,0.98
2023-02-11T16:57:15.401Z,0.97
2023-02-11T16:59:42.712Z,0.96
2023-02-11T17:02:24.081Z,0.93
2023-02-11T17:04:53.604Z,0.96
2023-02-11T17:07:20.401Z,0.97
2023-02-11T17:09:46.951Z,0.95
2023-02-11T17:12:13.726Z,0.96
2023-02-11T17:14:40.641Z,0.94
2023-02-11T17:17:08.044Z,0.95
2023-02-11T17:19:34.737Z,0.94
2023-02-11T17:22:01.493Z,0.96
2023-02-11T17:24:28.074Z,0.94
2023-02-11T17:26:54.903Z,0.97
2023-02-11T17:29:23.355Z,0.95
2023-02-11T17:31:52.121Z,0.95
2023-02-11T17:34:20.137Z,0.95
2023-02-11T17:36:46.888Z,0.95
2023-02-11T17:39:13.549Z,0.91
2023-02-11T17:41:40.667Z,0.95
2023-02-11T17:44:08.752Z,0.95
2023-02-11T17:46:36.387Z,0.96
2023-02-11T17:49:03.298Z,0.93
2023-02-11T17:51:35.131Z,0.93
2023-02-11T17:54:07.201Z,0.95
2023-02-11T17:56:36.477Z,0.92
2023-02-11T17:59:04.076Z,0.92
2023-02-11T18:01:33.520Z,0.91
2023-02-11T18:04:01.966Z,0.91
2023-02-11T18:06:33.923Z,0.93
2023-02-11T18:09:02.522Z,0.88
2023-02-11T18:11:30.456Z,0.89
2023-02-11T18:13:59.263Z,0.88
2023-02-11T18:16:28.886Z,0.92
2023-02-11T18:18:57.683Z,0.92
2023-02-11T18:21:24.804Z,0.93
2023-02-11T18:23:51.886Z,0.88
2023-02-11T18:26:20.854Z,0.90
2023-02-11T18:28:47.925Z,0.91
2023-02-11T18:31:16.057Z,0.90
2023-02-11T18:33:43.290Z,0.94
2023-02-11T18:36:13.699Z,0.91
2023-02-11T18:38:41.446Z,0.94
2023-02-11T18:41:12.242Z,0.93
2023-02-11T18:43:40.185Z,0.96
2023-02-11T18:46:09.164Z,0.97
2023-02-11T18:48:36.037Z,0.95
2023-02-11T18:51:02.831Z,0.91
2023-02-11T18:53:32.354Z,0.90
2023-02-11T18:55:58.910Z,0.84
2023-02-11T18:58:25.667Z,0.76
2023-02-11T19:00:52.269Z,0.73
2023-02-11T19:03:18.897Z,0.72
2023-02-11T19:05:47.775Z,0.70
2023-02-11T19:08:15.035Z,0.71
2023-02-11T19:10:43.333Z,0.69
2023-02-11T19:13:12.292Z,0.69
2023-02-11T19:15:43.158Z,0.68
2023-02-11T19:18:10.080Z,0.70
2023-02-11T19:20:39.926Z,0.73
2023-02-11T19:23:06.802Z,0.71
2023-02-11T19:25:33.685Z,0.75
2023-02-11T19:28:00.411Z,0.76
2023-02-11T19:30:27.440Z,0.77
2023-02-11T19:32:57.021Z,0.78
2023-02-11T19:35:24.437Z,0.78
2023-02-11T19:37:51.186Z,0.77
2023-02-11T19:40:18.102Z,0.79
2023-02-11T19:42:44.784Z,0.72
2023-02-11T19:45:11.310Z,0.76
2023-02-11T19:47:38.303Z,0.77
2023-02-11T19:50:05.757Z,0.75
2023-02-11T19:52:32.476Z,0.76
2023-02-11T19:55:00.259Z,0.71
2023-02-11T19:57:27.116Z,0.72
2023-02-11T19:59:55.042Z,0.71
2023-02-11T20:02:21.666Z,0.69
2023-02-11T20:04:48.750Z,0.65
2023-02-11T20:07:15.662Z,0.62
2023-02-11T20:09:42.748Z,0.60
2023-02-11T20:12:10.326Z,0.58
2023-02-11T20:14:37.143Z,0.56
2023-02-11T20:17:03.972Z,0.56
2023-02-11T20:19:30.873Z,0.53
2023-02-11T20:21:57.727Z,0.48
2023-02-11T20:24:25.322Z,0.46
2023-02-11T20:26:55.895Z,0.44
2023-02-11T20:29:24.029Z,0.35
2023-02-11T20:31:51.363Z,0.40
2023-02-11T20:34:18.404Z,0.31
2023-02-11T20:36:51.840Z,0.37
2023-02-11T20:39:21.947Z,0.34
2023-02-11T20:41:49.966Z,0.34
2023-02-11T20:44:16.578Z,0.34
2023-02-11T20:46:47.935Z,0.32
2023-02-11T20:49:18.904Z,0.32
2023-02-11T20:51:46.705Z,0.32
2023-02-11T20:54:18.426Z,0.34
2023-02-11T20:56:48.136Z,0.33
2023-02-11T20:59:16.655Z,0.32
2023-02-11T21:01:45.662Z,0.33
2023-02-11T21:04:15.872Z,0.35
2023-02-11T21:06:50.660Z,0.35
2023-02-11T21:09:23.332Z,0.37
2023-02-11T21:11:51.772Z,0.40
2023-02-11T21:14:20.703Z,0.41
2023-02-11T21:16:48.707Z,0.41
2023-02-11T21:19:16.000Z,0.39
2023-02-11T21:21:42.930Z,0.41
2023-02-11T21:24:10.147Z,0.41
2023-02-11T21:26:37.545Z,0.40
2023-02-11T21:29:06.036Z,0.38
2023-02-11T21:31:34.709Z,0.39
2023-02-11T21:34:01.750Z,0.34
2023-02-11T21:36:29.652Z,0.38
2023-02-11T21:38:56.663Z,0.42
2023-02-11T21:41:24.712Z,0.39
2023-02-11T21:43:51.818Z,0.39
2023-02-11T21:46:19.572Z,0.42
2023-02-11T21:48:46.711Z,0.41
2023-02-11T21:51:19.629Z,0.43
2023-02-11T21:53:46.743Z,0.43
2023-02-11T21:56:16.562Z,0.45
2023-02-11T21:58:43.911Z,0.47
2023-02-11T22:01:19.837Z,0.47
2023-02-11T22:03:46.548Z,0.47
2023-02-11T22:06:15.970Z,0.47
2023-02-11T22:08:42.743Z,0.49
2023-02-11T22:11:12.210Z,0.48
2023-02-11T22:13:39.708Z,0.52
2023-02-11T22:16:10.261Z,0.51
2023-02-11T22:18:37.390Z,0.55
2023-02-11T22:21:09.353Z,0.54
2023-02-11T22:23:36.845Z,0.53
2023-02-11T22:26:09.783Z,0.55
2023-02-11T22:28:38.861Z,0.55
2023-02-11T22:31:05.504Z,0.58
2023-02-11T22:33:32.178Z,0.52
2023-02-11T22:36:07.352Z,0.58
2023-02-11T22:38:34.921Z,0.59
2023-02-11T22:41:06.722Z,0.60
2023-02-11T22:43:33.346Z,0.59
2023-02-11T22:46:04.324Z,0.57
2023-02-11T22:48:31.079Z,0.59
2023-02-11T22:51:07.432Z,0.62
2023-02-11T22:53:34.231Z,0.57
2023-02-11T22:56:05.422Z,0.62
2023-02-11T22:58:32.074Z,0.62
2023-02-11T23:00:58.828Z,0.59
2023-02-11T23:03:25.440Z,0.62
2023-02-11T23:05:52.275Z,0.57
2023-02-11T23:08:18.953Z,0.62
2023-02-11T23:10:45.508Z,0.62
2023-02-11T23:13:12.123Z,0.60
2023-02-11T23:15:43.965Z,0.62
2023-02-11T23:18:12.585Z,0.60
2023-02-11T23:20:42.132Z,0.62
2023-02-11T23:23:09.022Z,0.64
2023-02-11T23:25:40.759Z,0.59
2023-02-11T23:28:07.378Z,0.63
2023-02-11T23:30:34.180Z,0.64
2023-02-11T23:33:00.793Z,0.62
2023-02-11T23:35:27.319Z,0.63
2023-02-11T23:37:53.844Z,0.59
2023-02-11T23:40:21.324Z,0.60
2023-02-11T23:42:49.024Z,0.60
2023-02-11T23:45:15.673Z,0.59
2023-02-11T23:47:42.250Z,0.62
2023-02-11T23:50:09.778Z,0.59
2023-02-11T23:52:36.345Z,0.62
2023-02-11T23:55:03.101Z,0.62
2023-02-11T23:57:31.982Z,0.58
2023-02-11T23:59:58.529Z,0.63
